sensor_id;sensor_type;location;lat;lon;timestamp;pressure;altitude;pressure_sealevel;temperature;humidity
21096;BME280;10706;49.036;12.112;2022-10-15T00:01:14;97287.59;;;12.28;100.00
21096;BME280;10706;49.036;12.112;2022-10-15T00:03:43;97290.78;;;12.24;100.00
21096;BME280;10706;49.036;12.112;2022-10-15T00:06:13;97285.69;;;12.23;100.00
21096;BME280;10706;49.036;12.112;2022-10-15T00:08:40;97275.84;;;12.34;100.00
21096;BME280;10706;49.036;12.112;2022-10-15T00:11:16;97264.34;;;12.33;100.00
21096;BME280;10706;49.036;12.112;2022-10-15T00:13:43;97269.97;;;12.32;100.00
21096;BME280;10706;49.036;12.112;2022-10-15T00:16:17;97269.22;;;12.41;100.00
21096;BME280;10706;49.036;12.112;2022-10-15T00:18:44;97269.72;;;12.33;100.00
21096;BME280;10706;49.036;12.112;2022-10-15T00:21:14;97260.09;;;12.42;100.00
21096;BME280;10706;49.036;12.112;2022-10-15T00:23:40;97264.91;;;12.35;100.00
21096;BME280;10706;49.036;12.112;2022-10-15T00:26:13;97248.56;;;12.37;100.00
21096;BME280;10706;49.036;12.112;2022-10-15T00:28:39;97252.81;;;12.33;100.00
21096;BME280;10706;49.036;12.112;2022-10-15T00:31:11;97248.28;;;12.33;100.00
21096;BME280;10706;49.036;12.112;2022-10-15T00:33:38;97253.34;;;12.30;100.00
21096;BME280;10706;49.036;12.112;2022-10-15T00:36:17;97249.88;;;12.34;100.00
21096;BME280;10706;49.036;12.112;2022-10-15T00:38:44;97248.00;;;12.30;100.00
21096;BME280;10706;49.036;12.112;2022-10-15T00:41:17;97241.31;;;12.32;100.00
21096;BME280;10706;49.036;12.112;2022-10-15T00:43:56;97245.03;;;12.26;100.00
21096;BME280;10706;49.036;12.112;2022-10-15T00:46:33;97250.66;;;12.30;100.00
21096;BME280;10706;49.036;12.112;2022-10-15T00:49:25;97250.38;;;12.26;100.00
21096;BME280;10706;49.036;12.112;2022-10-15T00:52:05;97250.09;;;12.22;100.00
21096;BME280;10706;49.036;12.112;2022-10-15T00:54:40;97238.63;;;12.32;100.00
21096;BME280;10706;49.036;12.112;2022-10-15T00:57:08;97230.59;;;12.32;100.00
21096;BME280;10706;49.036;12.112;2022-10-15T00:59:40;97230.31;;;12.29;100.00
21096;BME280;10706;49.036;12.112;2022-10-15T01:02:07;97224.44;;;12.32;100.00
21096;BME280;10706;49.036;12.112;2022-10-15T01:04:34;97222.03;;;12.30;100.00
21096;BME280;10706;49.036;12.112;2022-10-15T01:07:01;97213.97;;;12.25;100.00
21096;BME280;10706;49.036;12.112;2022-10-15T01:09:27;97226.78;;;12.23;100.00
21096;BME280;10706;49.036;12.112;2022-10-15T01:11:55;97223.06;;;12.24;100.00
21096;BME280;10706;49.036;12.112;2022-10-15T01:14:56;97223.31;;;12.22;100.00
21096;BME280;10706;49.036;12.112;2022-10-15T01:20:40;97210.22;;;12.26;100.00
21096;BME280;10706;49.036;12.112;2022-10-15T01:29:57;97190.41;;;12.22;100.00
21096;BME280;10706;49.036;12.112;2022-10-15T01:32:32;97182.38;;;12.22;100.00
21096;BME280;10706;49.036;12.112;2022-10-15T01:38:23;97174.34;;;12.27;100.00
21096;BME280;10706;49.036;12.112;2022-10-15T01:40:58;97175.44;;;12.26;100.00
21096;BME280;10706;49.036;12.112;2022-10-15T01:47:04;97176.19;;;12.21;100.00
21096;BME280;10706;49.036;12.112;2022-10-15T01:49:36;97175.97;;;12.28;100.00
21096;BME280;10706;49.036;12.112;2022-10-15T01:52:09;97162.03;;;12.31;100.00
21096;BME280;10706;49.036;12.112;2022-10-15T01:54:37;97158.28;;;12.27;100.00
21096;BME280;10706;49.036;12.112;2022-10-15T01:57:05;97159.38;;;12.31;100.00
21096;BME280;10706;49.036;12.112;2022-10-15T01:59:32;97162.56;;;12.23;100.00
21096;BME280;10706;49.036;12.112;2022-10-15T02:01:59;97165.22;;;12.23;100.00
21096;BME280;10706;49.036;12.112;2022-10-15T02:04:28;97154.31;;;12.35;100.00
21096;BME280;10706;49.036;12.112;2022-10-15T02:18:38;97145.22;;;12.36;100.00
21096;BME280;10706;49.036;12.112;2022-10-15T02:21:16;97132.63;;;12.36;100.00
21096;BME280;10706;49.036;12.112;2022-10-15T02:26:19;97140.09;;;12.24;100.00
21096;BME280;10706;49.036;12.112;2022-10-15T02:28:53;97143.53;;;12.19;100.00
21096;BME280;10706;49.036;12.112;2022-10-15T02:31:21;97135.50;;;12.19;100.00
21096;BME280;10706;49.036;12.112;2022-10-15T02:33:50;97135.81;;;12.28;100.00
21096;BME280;10706;49.036;12.112;2022-10-15T02:36:18;97129.38;;;12.29;100.00
21096;BME280;10706;49.036;12.112;2022-10-15T02:38:45;97130.47;;;12.28;100.00
21096;BME280;10706;49.036;12.112;2022-10-15T02:41:12;97134.75;;;12.24;100.00
21096;BME280;10706;49.036;12.112;2022-10-15T02:43:39;97131.53;;;12.27;100.00
21096;BME280;10706;49.036;12.112;2022-10-15T02:46:08;97133.91;;;12.23;100.00
21096;BME280;10706;49.036;12.112;2022-10-15T02:48:34;97129.38;;;12.24;100.00
21096;BME280;10706;49.036;12.112;2022-10-15T02:51:00;97130.19;;;12.24;100.00
21096;BME280;10706;49.036;12.112;2022-10-15T02:53:26;97117.59;;;12.25;100.00
21096;BME280;10706;49.036;12.112;2022-10-15T02:55:51;97119.22;;;12.26;100.00
21096;BME280;10706;49.036;12.112;2022-10-15T02:58:17;97117.84;;;12.23;100.00
21096;BME280;10706;49.036;12.112;2022-10-15T03:00:43;97125.09;;;12.23;100.00
21096;BME280;10706;49.036;12.112;2022-10-15T03:03:09;97115.47;;;12.22;100.00
21096;BME280;10706;49.036;12.112;2022-10-15T03:05:35;97113.84;;;12.21;100.00
21096;BME280;10706;49.036;12.112;2022-10-15T03:08:01;97114.38;;;12.23;100.00
21096;BME280;10706;49.036;12.112;2022-10-15T03:10:26;97117.03;;;12.18;100.00
21096;BME280;10706;49.036;12.112;2022-10-15T03:12:52;97121.88;;;12.21;100.00
21096;BME280;10706;49.036;12.112;2022-10-15T03:15:18;97121.09;;;12.31;100.00
21096;BME280;10706;49.036;12.112;2022-10-15T03:17:44;97107.97;;;12.29;100.00
21096;BME280;10706;49.036;12.112;2022-10-15T03:20:10;97104.81;;;12.42;100.00
21096;BME280;10706;49.036;12.112;2022-10-15T03:22:35;97108.03;;;12.50;100.00
21096;BME280;10706;49.036;12.112;2022-10-15T03:25:02;97107.72;;;12.31;100.00
21096;BME280;10706;49.036;12.112;2022-10-15T03:27:28;97105.84;;;12.26;100.00
21096;BME280;10706;49.036;12.112;2022-10-15T03:29:53;97096.22;;;12.30;100.00
21096;BME280;10706;49.036;12.112;2022-10-15T03:32:19;97096.72;;;12.22;100.00
21096;BME280;10706;49.036;12.112;2022-10-15T03:34:45;97108.75;;;12.19;100.00
21096;BME280;10706;49.036;12.112;2022-10-15T03:37:10;97101.78;;;12.18;100.00
21096;BME280;10706;49.036;12.112;2022-10-15T03:39:36;97092.97;;;12.23;100.00
21096;BME280;10706;49.036;12.112;2022-10-15T03:42:02;97095.13;;;12.31;100.00
21096;BME280;10706;49.036;12.112;2022-10-15T03:44:28;97095.38;;;12.24;100.00
21096;BME280;10706;49.036;12.112;2022-10-15T03:46:53;97080.66;;;12.22;100.00
21096;BME280;10706;49.036;12.112;2022-10-15T03:49:19;97088.94;;;12.25;100.00
21096;BME280;10706;49.036;12.112;2022-10-15T03:51:45;97089.78;;;12.31;100.00
21096;BME280;10706;49.036;12.112;2022-10-15T03:54:11;97097.81;;;12.26;100.00
21096;BME280;10706;49.036;12.112;2022-10-15T03:56:36;97094.88;;;12.28;100.00
21096;BME280;10706;49.036;12.112;2022-10-15T03:59:02;97100.47;;;12.31;100.00
21096;BME280;10706;49.036;12.112;2022-10-15T04:01:28;97095.66;;;12.28;100.00
21096;BME280;10706;49.036;12.112;2022-10-15T04:03:54;97089.50;;;12.33;100.00
21096;BME280;10706;49.036;12.112;2022-10-15T04:06:20;97090.59;;;12.32;100.00
21096;BME280;10706;49.036;12.112;2022-10-15T04:08:46;97080.94;;;12.31;100.00
21096;BME280;10706;49.036;12.112;2022-10-15T04:11:11;97084.22;;;12.48;100.00
21096;BME280;10706;49.036;12.112;2022-10-15T04:13:37;97086.59;;;12.39;100.00
21096;BME280;10706;49.036;12.112;2022-10-15T04:16:04;97088.44;;;12.29;100.00
21096;BME280;10706;49.036;12.112;2022-10-15T04:18:30;97087.38;;;12.30;100.00
21096;BME280;10706;49.036;12.112;2022-10-15T04:21:00;97081.53;;;12.43;100.00
21096;BME280;10706;49.036;12.112;2022-10-15T04:23:26;97087.09;;;12.31;100.00
21096;BME280;10706;49.036;12.112;2022-10-15T04:25:52;97083.38;;;12.32;100.00
21096;BME280;10706;49.036;12.112;2022-10-15T04:28:18;97081.47;;;12.33;100.00
21096;BME280;10706;49.036;12.112;2022-10-15T04:30:43;97084.16;;;12.33;100.00
21096;BME280;10706;49.036;12.112;2022-10-15T04:33:09;97082.78;;;12.25;100.00
21096;BME280;10706;49.036;12.112;2022-10-15T04:35:35;97081.75;;;12.36;100.00
21096;BME280;10706;49.036;12.112;2022-10-15T04:38:01;97083.63;;;12.31;100.00
21096;BME280;10706;49.036;12.112;2022-10-15T04:40:27;97079.63;;;12.38;100.00
21096;BME280;10706;49.036;12.112;2022-10-15T04:42:53;97081.19;;;12.29;100.00
21096;BME280;10706;49.036;12.112;2022-10-15T04:45:18;97075.34;;;12.37;100.00
21096;BME280;10706;49.036;12.112;2022-10-15T04:47:45;97074.53;;;12.32;100.00
21096;BME280;10706;49.036;12.112;2022-10-15T04:50:10;97077.97;;;12.27;100.00
21096;BME280;10706;49.036;12.112;2022-10-15T04:52:36;97076.94;;;12.38;100.00
21096;BME280;10706;49.036;12.112;2022-10-15T04:55:02;97073.72;;;12.31;100.00
21096;BME280;10706;49.036;12.112;2022-10-15T04:57:30;97077.44;;;12.25;100.00
21096;BME280;10706;49.036;12.112;2022-10-15T04:59:56;97077.47;;;12.30;100.00
21096;BME280;10706;49.036;12.112;2022-10-15T05:02:22;97072.13;;;12.40;100.00
21096;BME280;10706;49.036;12.112;2022-10-15T05:04:47;97073.25;;;12.44;100.00
21096;BME280;10706;49.036;12.112;2022-10-15T05:07:13;97067.84;;;12.34;100.00
21096;BME280;10706;49.036;12.112;2022-10-15T05:09:39;97074.53;;;12.32;100.00
21096;BME280;10706;49.036;12.112;2022-10-15T05:12:05;97064.63;;;12.32;100.00
21096;BME280;10706;49.036;12.112;2022-10-15T05:14:30;97057.66;;;12.31;100.00
21096;BME280;10706;49.036;12.112;2022-10-15T05:16:56;97063.56;;;12.33;100.00
21096;BME280;10706;49.036;12.112;2022-10-15T05:19:22;97062.78;;;12.38;100.00
21096;BME280;10706;49.036;12.112;2022-10-15T05:21:47;97061.16;;;12.32;100.00
21096;BME280;10706;49.036;12.112;2022-10-15T05:24:13;97064.63;;;12.32;100.00
21096;BME280;10706;49.036;12.112;2022-10-15T05:26:39;97061.38;;;12.25;100.00
21096;BME280;10706;49.036;12.112;2022-10-15T05:29:05;97068.13;;;12.38;100.00
21096;BME280;10706;49.036;12.112;2022-10-15T05:31:32;97068.16;;;12.43;100.00
21096;BME280;10706;49.036;12.112;2022-10-15T05:33:58;97069.47;;;12.40;100.00
21096;BME280;10706;49.036;12.112;2022-10-15T05:36:27;97080.97;;;12.36;100.00
21096;BME280;10706;49.036;12.112;2022-10-15T05:39:02;97074.31;;;12.43;100.00
21096;BME280;10706;49.036;12.112;2022-10-15T05:41:29;97085.00;;;12.43;100.00
21096;BME280;10706;49.036;12.112;2022-10-15T05:43:57;97083.38;;;12.32;100.00
21096;BME280;10706;49.036;12.112;2022-10-15T05:46:23;97082.28;;;12.28;100.00
21096;BME280;10706;49.036;12.112;2022-10-15T05:48:54;97087.41;;;12.40;100.00
21096;BME280;10706;49.036;12.112;2022-10-15T05:51:22;97091.97;;;12.50;100.00
21096;BME280;10706;49.036;12.112;2022-10-15T05:53:52;97091.13;;;12.34;100.00
21096;BME280;10706;49.036;12.112;2022-10-15T05:56:18;97087.44;;;12.45;100.00
21096;BME280;10706;49.036;12.112;2022-10-15T05:58:44;97092.25;;;12.43;100.00
21096;BME280;10706;49.036;12.112;2022-10-15T06:01:12;97096.78;;;12.48;100.00
21096;BME280;10706;49.036;12.112;2022-10-15T06:03:39;97093.56;;;12.35;100.00
21096;BME280;10706;49.036;12.112;2022-10-15T06:06:14;97096.22;;;12.30;100.00
21096;BME280;10706;49.036;12.112;2022-10-15T06:08:40;97098.84;;;12.25;100.00
21096;BME280;10706;49.036;12.112;2022-10-15T06:11:06;97095.63;;;12.23;100.00
21096;BME280;10706;49.036;12.112;2022-10-15T06:13:31;97106.09;;;12.24;100.00
21096;BME280;10706;49.036;12.112;2022-10-15T06:15:57;97103.16;;;12.31;100.00
21096;BME280;10706;49.036;12.112;2022-10-15T06:18:23;97100.00;;;12.39;100.00
21096;BME280;10706;49.036;12.112;2022-10-15T06:20:52;97106.13;;;12.35;100.00
21096;BME280;10706;49.036;12.112;2022-10-15T06:23:18;97103.44;;;12.30;100.00
21096;BME280;10706;49.036;12.112;2022-10-15T06:25:44;97111.53;;;12.45;100.00
21096;BME280;10706;49.036;12.112;2022-10-15T06:28:10;97113.94;;;12.52;100.00
21096;BME280;10706;49.036;12.112;2022-10-15T06:30:36;97118.25;;;12.53;100.00
21096;BME280;10706;49.036;12.112;2022-10-15T06:33:02;97119.56;;;12.45;100.00
21096;BME280;10706;49.036;12.112;2022-10-15T06:35:28;97122.72;;;12.37;100.00
21096;BME280;10706;49.036;12.112;2022-10-15T06:37:55;97136.38;;;12.40;100.00
21096;BME280;10706;49.036;12.112;2022-10-15T06:40:24;97136.94;;;12.37;100.00
21096;BME280;10706;49.036;12.112;2022-10-15T06:42:50;97131.31;;;12.39;100.00
21096;BME280;10706;49.036;12.112;2022-10-15T06:45:15;97142.56;;;12.41;100.00
21096;BME280;10706;49.036;12.112;2022-10-15T06:47:41;97137.78;;;12.48;100.00
21096;BME280;10706;49.036;12.112;2022-10-15T06:50:07;97154.09;;;12.52;100.00
21096;BME280;10706;49.036;12.112;2022-10-15T06:52:34;97149.31;;;12.59;100.00
21096;BME280;10706;49.036;12.112;2022-10-15T06:55:00;97153.03;;;12.48;100.00
21096;BME280;10706;49.036;12.112;2022-10-15T06:57:29;97160.00;;;12.49;100.00
21096;BME280;10706;49.036;12.112;2022-10-15T06:59:55;97162.44;;;12.55;100.00
21096;BME280;10706;49.036;12.112;2022-10-15T07:02:22;97171.25;;;12.51;100.00
21096;BME280;10706;49.036;12.112;2022-10-15T07:04:48;97172.34;;;12.55;100.00
21096;BME280;10706;49.036;12.112;2022-10-15T07:07:14;97177.16;;;12.53;100.00
21096;BME280;10706;49.036;12.112;2022-10-15T07:09:39;97170.75;;;12.54;100.00
21096;BME280;10706;49.036;12.112;2022-10-15T07:12:06;97174.25;;;12.59;100.00
21096;BME280;10706;49.036;12.112;2022-10-15T07:14:32;97167.59;;;12.67;100.00
21096;BME280;10706;49.036;12.112;2022-10-15T07:16:58;97167.56;;;12.72;100.00
21096;BME280;10706;49.036;12.112;2022-10-15T07:19:24;97180.47;;;12.80;100.00
21096;BME280;10706;49.036;12.112;2022-10-15T07:21:51;97179.16;;;12.88;100.00
21096;BME280;10706;49.036;12.112;2022-10-15T07:24:16;97177.31;;;12.99;100.00
21096;BME280;10706;49.036;12.112;2022-10-15T07:26:42;97189.09;;;13.08;100.00
21096;BME280;10706;49.036;12.112;2022-10-15T07:29:08;97191.53;;;13.10;100.00
21096;BME280;10706;49.036;12.112;2022-10-15T07:31:34;97198.78;;;13.14;100.00
21096;BME280;10706;49.036;12.112;2022-10-15T07:34:06;97192.34;;;13.05;100.00
21096;BME280;10706;49.036;12.112;2022-10-15T07:36:37;97196.09;;;12.99;100.00
21096;BME280;10706;49.036;12.112;2022-10-15T07:39:09;97196.09;;;12.99;100.00
21096;BME280;10706;49.036;12.112;2022-10-15T07:41:38;97205.19;;;13.03;100.00
21096;BME280;10706;49.036;12.112;2022-10-15T07:44:07;97201.19;;;13.06;100.00
21096;BME280;10706;49.036;12.112;2022-10-15T07:46:32;97210.59;;;13.18;100.00
21096;BME280;10706;49.036;12.112;2022-10-15T07:48:58;97207.38;;;13.21;100.00
21096;BME280;10706;49.036;12.112;2022-10-15T07:51:24;97209.78;;;13.23;100.00
21096;BME280;10706;49.036;12.112;2022-10-15T07:53:50;97206.84;;;13.25;100.00
21096;BME280;10706;49.036;12.112;2022-10-15T07:56:16;97217.63;;;13.35;100.00
21096;BME280;10706;49.036;12.112;2022-10-15T07:58:43;97222.97;;;13.40;100.00
21096;BME280;10706;49.036;12.112;2022-10-15T08:01:18;97224.59;;;13.41;100.00
21096;BME280;10706;49.036;12.112;2022-10-15T08:03:44;97226.75;;;13.39;100.00
21096;BME280;10706;49.036;12.112;2022-10-15T08:06:10;97224.38;;;13.48;100.00
21096;BME280;10706;49.036;12.112;2022-10-15T08:08:36;97227.56;;;13.45;100.00
21096;BME280;10706;49.036;12.112;2022-10-15T08:11:15;97223.53;;;13.37;100.00
21096;BME280;10706;49.036;12.112;2022-10-15T08:13:42;97226.50;;;13.40;100.00
21096;BME280;10706;49.036;12.112;2022-10-15T08:16:11;97227.03;;;13.43;100.00
21096;BME280;10706;49.036;12.112;2022-10-15T08:18:38;97221.94;;;13.46;100.00
21096;BME280;10706;49.036;12.112;2022-10-15T08:21:06;97233.19;;;13.43;100.00
21096;BME280;10706;49.036;12.112;2022-10-15T08:23:33;97232.13;;;13.44;100.00
21096;BME280;10706;49.036;12.112;2022-10-15T08:25:59;97244.44;;;13.45;100.00
21096;BME280;10706;49.036;12.112;2022-10-15T08:28:30;97237.75;;;13.53;100.00
21096;BME280;10706;49.036;12.112;2022-10-15T08:30:59;97243.66;;;13.60;100.00
21096;BME280;10706;49.036;12.112;2022-10-15T08:33:27;97239.13;;;13.55;100.00
21096;BME280;10706;49.036;12.112;2022-10-15T08:35:53;97242.59;;;13.56;100.00
21096;BME280;10706;49.036;12.112;2022-10-15T08:38:19;97256.81;;;13.72;100.00
21096;BME280;10706;49.036;12.112;2022-10-15T08:40:58;97255.22;;;13.81;100.00
21096;BME280;10706;49.036;12.112;2022-10-15T08:43:40;97257.13;;;13.86;100.00
21096;BME280;10706;49.036;12.112;2022-10-15T08:46:36;97262.19;;;13.92;100.00
21096;BME280;10706;49.036;12.112;2022-10-15T08:49:04;97265.44;;;13.99;100.00
21096;BME280;10706;49.036;12.112;2022-10-15T08:51:44;97272.94;;;14.03;100.00
21096;BME280;10706;49.036;12.112;2022-10-15T08:54:16;97270.50;;;14.11;100.00
21096;BME280;10706;49.036;12.112;2022-10-15T08:56:47;97278.84;;;14.10;100.00
21096;BME280;10706;49.036;12.112;2022-10-15T08:59:44;97268.91;;;14.15;100.00
21096;BME280;10706;49.036;12.112;2022-10-15T09:02:24;97285.00;;;14.20;100.00
21096;BME280;10706;49.036;12.112;2022-10-15T09:07:58;97283.41;;;14.45;100.00
21096;BME280;10706;49.036;12.112;2022-10-15T09:10:35;97287.94;;;14.60;100.00
21096;BME280;10706;49.036;12.112;2022-10-15T09:16:14;97296.78;;;14.66;100.00
21096;BME280;10706;49.036;12.112;2022-10-15T09:18:45;97290.34;;;14.72;100.00
21096;BME280;10706;49.036;12.112;2022-10-15T09:21:12;97287.34;;;14.78;100.00
21096;BME280;10706;49.036;12.112;2022-10-15T09:23:39;97287.34;;;14.89;100.00
21096;BME280;10706;49.036;12.112;2022-10-15T09:26:22;97294.50;;;15.09;100.00
21096;BME280;10706;49.036;12.112;2022-10-15T09:29:57;97303.94;;;15.06;100.00
21096;BME280;10706;49.036;12.112;2022-10-15T09:35:23;97298.53;;;15.11;100.00
21096;BME280;10706;49.036;12.112;2022-10-15T09:38:47;97306.88;;;15.15;100.00
21096;BME280;10706;49.036;12.112;2022-10-15T09:44:13;97307.59;;;15.31;100.00
21096;BME280;10706;49.036;12.112;2022-10-15T09:46:48;97311.94;;;15.27;100.00
21096;BME280;10706;49.036;12.112;2022-10-15T09:49:25;97309.47;;;15.35;100.00
21096;BME280;10706;49.036;12.112;2022-10-15T09:58:25;97321.91;;;15.21;100.00
21096;BME280;10706;49.036;12.112;2022-10-15T10:03:26;97332.38;;;15.23;100.00
21096;BME280;10706;49.036;12.112;2022-10-15T10:08:46;97332.91;;;15.30;100.00
21096;BME280;10706;49.036;12.112;2022-10-15T10:11:14;97342.03;;;15.29;100.00
21096;BME280;10706;49.036;12.112;2022-10-15T10:16:15;97343.13;;;15.28;99.54
21096;BME280;10706;49.036;12.112;2022-10-15T10:18:42;97342.56;;;15.26;100.00
21096;BME280;10706;49.036;12.112;2022-10-15T10:21:33;97347.16;;;15.30;100.00
21096;BME280;10706;49.036;12.112;2022-10-15T10:24:29;97346.63;;;15.28;100.00
21096;BME280;10706;49.036;12.112;2022-10-15T10:27:00;97337.72;;;15.33;99.79
21096;BME280;10706;49.036;12.112;2022-10-15T10:29:28;97353.56;;;15.45;100.00
21096;BME280;10706;49.036;12.112;2022-10-15T10:31:57;97352.97;;;15.53;100.00
21096;BME280;10706;49.036;12.112;2022-10-15T10:34:29;97355.13;;;15.51;99.93
21096;BME280;10706;49.036;12.112;2022-10-15T10:36:56;97353.25;;;15.51;100.00
21096;BME280;10706;49.036;12.112;2022-10-15T10:39:30;97359.94;;;15.54;99.43
21096;BME280;10706;49.036;12.112;2022-10-15T10:42:04;97362.69;;;15.49;98.16
21096;BME280;10706;49.036;12.112;2022-10-15T10:44:42;97361.84;;;15.48;98.84
21096;BME280;10706;49.036;12.112;2022-10-15T10:47:23;97361.03;;;15.58;98.15
21096;BME280;10706;49.036;12.112;2022-10-15T10:49:57;97360.69;;;15.75;99.39
21096;BME280;10706;49.036;12.112;2022-10-15T10:55:07;97364.97;;;15.76;95.94
21096;BME280;10706;49.036;12.112;2022-10-15T10:57:54;97369.72;;;15.94;97.44
21096;BME280;10706;49.036;12.112;2022-10-15T11:00:38;97366.50;;;16.32;98.00
21096;BME280;10706;49.036;12.112;2022-10-15T11:17:06;97360.25;;;17.00;90.55
21096;BME280;10706;49.036;12.112;2022-10-15T11:25:54;97356.00;;;17.18;87.54
21096;BME280;10706;49.036;12.112;2022-10-15T11:28:50;97350.47;;;16.80;91.36
21096;BME280;10706;49.036;12.112;2022-10-15T11:31:46;97349.91;;;16.83;91.40
21096;BME280;10706;49.036;12.112;2022-10-15T11:37:40;97360.09;;;17.16;91.71
21096;BME280;10706;49.036;12.112;2022-10-15T11:51:48;97352.53;;;17.18;88.10
21096;BME280;10706;49.036;12.112;2022-10-15T11:54:38;97361.53;;;17.08;87.71
21096;BME280;10706;49.036;12.112;2022-10-15T11:57:17;97355.91;;;17.04;87.28
21096;BME280;10706;49.036;12.112;2022-10-15T12:02:46;97355.47;;;16.92;88.17
21096;BME280;10706;49.036;12.112;2022-10-15T12:05:20;97353.88;;;16.91;87.91
21096;BME280;10706;49.036;12.112;2022-10-15T12:07:52;97354.47;;;17.36;88.27
21096;BME280;10706;49.036;12.112;2022-10-15T12:11:15;97360.66;;;17.37;87.48
21096;BME280;10706;49.036;12.112;2022-10-15T12:19:57;97351.38;;;18.24;82.75
21096;BME280;10706;49.036;12.112;2022-10-15T12:22:59;97360.72;;;18.64;83.20
21096;BME280;10706;49.036;12.112;2022-10-15T12:28:23;97349.56;;;18.85;79.57
21096;BME280;10706;49.036;12.112;2022-10-15T12:31:08;97356.41;;;18.31;81.01
21096;BME280;10706;49.036;12.112;2022-10-15T12:33:36;97349.25;;;18.40;80.31
21096;BME280;10706;49.036;12.112;2022-10-15T12:36:27;97352.88;;;18.82;81.69
21096;BME280;10706;49.036;12.112;2022-10-15T12:39:14;97346.47;;;18.45;79.52
21096;BME280;10706;49.036;12.112;2022-10-15T12:41:47;97353.50;;;18.27;81.35
21096;BME280;10706;49.036;12.112;2022-10-15T12:46:51;97347.50;;;18.11;81.63
21096;BME280;10706;49.036;12.112;2022-10-15T12:52:07;97341.97;;;18.21;78.26
21096;BME280;10706;49.036;12.112;2022-10-15T12:54:50;97350.75;;;18.79;77.62
21096;BME280;10706;49.036;12.112;2022-10-15T13:02:50;97351.00;;;19.38;74.14
21096;BME280;10706;49.036;12.112;2022-10-15T13:05:29;97344.38;;;19.58;73.25
21096;BME280;10706;49.036;12.112;2022-10-15T13:07:58;97350.81;;;19.20;72.81
21096;BME280;10706;49.036;12.112;2022-10-15T13:10:37;97356.22;;;19.34;74.66
21096;BME280;10706;49.036;12.112;2022-10-15T13:13:12;97353.38;;;19.26;74.01
21096;BME280;10706;49.036;12.112;2022-10-15T13:15:39;97349.78;;;19.02;74.57
21096;BME280;10706;49.036;12.112;2022-10-15T13:18:29;97349.09;;;19.52;74.77
21096;BME280;10706;49.036;12.112;2022-10-15T13:20:57;97351.06;;;19.60;75.31
21096;BME280;10706;49.036;12.112;2022-10-15T13:23:30;97362.72;;;19.06;74.90
21096;BME280;10706;49.036;12.112;2022-10-15T13:26:34;97359.66;;;18.79;76.48
21096;BME280;10706;49.036;12.112;2022-10-15T13:29:05;97359.91;;;18.31;77.26
21096;BME280;10706;49.036;12.112;2022-10-15T13:31:39;97359.34;;;18.15;78.68
21096;BME280;10706;49.036;12.112;2022-10-15T13:34:28;97358.50;;;17.77;79.28
21096;BME280;10706;49.036;12.112;2022-10-15T13:36:58;97368.72;;;17.61;81.03
21096;BME280;10706;49.036;12.112;2022-10-15T13:39:42;97374.25;;;17.51;82.70
21096;BME280;10706;49.036;12.112;2022-10-15T13:42:14;97368.06;;;17.26;84.87
21096;BME280;10706;49.036;12.112;2022-10-15T13:44:41;97373.34;;;17.12;85.86
21096;BME280;10706;49.036;12.112;2022-10-15T13:47:31;97366.47;;;16.66;89.39
21096;BME280;10706;49.036;12.112;2022-10-15T13:52:57;97375.63;;;16.36;91.49
21096;BME280;10706;49.036;12.112;2022-10-15T13:55:32;97378.16;;;16.22;92.93
21096;BME280;10706;49.036;12.112;2022-10-15T13:58:26;97383.34;;;16.13;91.92
21096;BME280;10706;49.036;12.112;2022-10-15T14:01:01;97378.75;;;16.14;92.63
21096;BME280;10706;49.036;12.112;2022-10-15T14:03:33;97372.28;;;16.15;93.08
21096;BME280;10706;49.036;12.112;2022-10-15T14:06:23;97374.91;;;16.25;92.79
21096;BME280;10706;49.036;12.112;2022-10-15T14:09:17;97379.31;;;16.45;92.22
21096;BME280;10706;49.036;12.112;2022-10-15T14:11:41;97371.69;;;16.58;92.00
21096;BME280;10706;49.036;12.112;2022-10-15T14:14:38;97368.16;;;16.57;90.66
21096;BME280;10706;49.036;12.112;2022-10-15T14:17:26;97368.94;;;16.63;89.53
21096;BME280;10706;49.036;12.112;2022-10-15T14:20:03;97382.84;;;16.75;88.18
21096;BME280;10706;49.036;12.112;2022-10-15T14:22:30;97378.00;;;16.72;89.19
21096;BME280;10706;49.036;12.112;2022-10-15T14:24:57;97385.78;;;16.84;88.68
21096;BME280;10706;49.036;12.112;2022-10-15T14:27:25;97386.09;;;17.06;88.03
21096;BME280;10706;49.036;12.112;2022-10-15T14:29:56;97377.19;;;17.30;86.44
21096;BME280;10706;49.036;12.112;2022-10-15T14:32:30;97378.56;;;17.52;85.83
21096;BME280;10706;49.036;12.112;2022-10-15T14:34:57;97376.69;;;17.71;84.99
21096;BME280;10706;49.036;12.112;2022-10-15T14:43:04;97379.31;;;17.76;82.38
21096;BME280;10706;49.036;12.112;2022-10-15T14:48:27;97380.16;;;17.53;82.62
21096;BME280;10706;49.036;12.112;2022-10-15T14:50:58;97374.25;;;17.51;83.82
21096;BME280;10706;49.036;12.112;2022-10-15T14:53:28;97373.69;;;17.54;84.75
21096;BME280;10706;49.036;12.112;2022-10-15T14:56:03;97376.84;;;17.61;85.25
21096;BME280;10706;49.036;12.112;2022-10-15T14:58:29;97381.72;;;17.59;83.64
21096;BME280;10706;49.036;12.112;2022-10-15T15:00:58;97381.13;;;17.62;83.38
21096;BME280;10706;49.036;12.112;2022-10-15T15:03:49;97395.50;;;17.57;83.21
21096;BME280;10706;49.036;12.112;2022-10-15T15:06:16;97397.28;;;17.43;82.09
21096;BME280;10706;49.036;12.112;2022-10-15T15:08:41;97394.63;;;17.38;82.98
21096;BME280;10706;49.036;12.112;2022-10-15T15:11:14;97392.31;;;17.31;84.02
21096;BME280;10706;49.036;12.112;2022-10-15T15:13:44;97387.41;;;17.33;84.24